createdAt,value
2022-12-10T00:04:12.119Z,38.75
2022-12-10T00:11:38.428Z,38.75
2022-12-10T00:19:01.486Z,38.76
2022-12-10T00:26:14.955Z,38.9
2022-12-10T00:33:42.931Z,38.85
2022-12-10T00:41:01.063Z,38.9
2022-12-10T00:48:14.045Z,39
2022-12-10T00:55:21.573Z,39.06
2022-12-10T01:02:45.099Z,39.07
2022-12-10T01:10:02.063Z,38.77
2022-12-10T01:17:36.443Z,38.84
2022-12-10T01:25:07.838Z,38.75
2022-12-10T01:32:36.285Z,38.75
2022-12-10T01:39:53.120Z,38.66
2022-12-10T01:47:16.276Z,38.82
2022-12-10T01:54:53.585Z,38.81
2022-12-10T02:02:28.810Z,38.74
2022-12-10T02:10:33.513Z,38.84
2022-12-10T02:18:15.769Z,38.85
2022-12-10T02:26:04.655Z,38.71
2022-12-10T02:33:53.177Z,38.83
2022-12-10T02:41:43.529Z,38.65
2022-12-10T02:49:09.648Z,38.73
2022-12-10T02:56:44.318Z,38.83
2022-12-10T03:04:38.135Z,38.78
2022-12-10T03:12:41.136Z,38.89
2022-12-10T03:20:33.644Z,38.93
2022-12-10T03:28:13.469Z,39.02
2022-12-10T03:35:43.600Z,39.03
2022-12-10T03:43:19.805Z,39.03
2022-12-10T03:50:53.796Z,39.09
2022-12-10T03:58:05.213Z,39.2
2022-12-10T04:05:29.464Z,39.04
2022-12-10T04:12:44.071Z,39.15
2022-12-10T04:20:06.165Z,39.16
2022-12-10T04:27:41.636Z,39.08
2022-12-10T04:34:56.428Z,39.14
2022-12-10T04:42:31.511Z,39.09
2022-12-10T04:49:56.193Z,39.16
2022-12-10T04:57:22.976Z,39.17
2022-12-10T05:04:53.636Z,39.28
2022-12-10T05:12:25.232Z,38.6
2022-12-10T05:19:52.212Z,37.7
2022-12-10T05:27:22.230Z,37.76
2022-12-10T05:34:50.909Z,37.37
2022-12-10T05:42:30.694Z,36.95
2022-12-10T05:50:05.765Z,36.75
2022-12-10T05:56:39.018Z,34.89
2022-12-10T06:03:14.918Z,34.97
2022-12-10T06:09:43.787Z,35.37
2022-12-10T06:16:07.953Z,35.33
2022-12-10T06:22:36.854Z,35.58
2022-12-10T06:29:07.790Z,36.02
2022-12-10T06:35:39.908Z,35.67
2022-12-10T06:42:11.868Z,35.94
2022-12-10T06:48:50.980Z,35.72
2022-12-10T06:55:20.748Z,36.28
2022-12-10T07:01:46.243Z,36.44
2022-12-10T07:08:25.948Z,36.48
2022-12-10T07:14:54.033Z,36.48
2022-12-10T07:21:31.836Z,36.13
2022-12-10T07:28:03.234Z,36.16
2022-12-10T07:34:30.884Z,36.31
2022-12-10T07:40:53.847Z,36.24
2022-12-10T07:47:31.127Z,35.68
2022-12-10T07:54:01.782Z,35.7
2022-12-10T08:00:28.815Z,36.17
2022-12-10T08:06:53.969Z,36.16
2022-12-10T08:13:27.733Z,36.18
2022-12-10T08:20:03.436Z,36.24
2022-12-10T08:26:29.856Z,36.47
2022-12-10T08:32:55.895Z,36.42
2022-12-10T08:39:23.327Z,36.59
2022-12-10T08:45:59.013Z,36.64
2022-12-10T08:52:20.945Z,36.22
2022-12-10T08:58:55.286Z,36.1
2022-12-10T09:05:20.921Z,36.52
2022-12-10T09:11:52.890Z,36.46
2022-12-10T09:18:29.405Z,36.46
2022-12-10T09:24:57.927Z,36.43
2022-12-10T09:31:22.278Z,36.44
2022-12-10T09:37:45.857Z,36.33
2022-12-10T09:44:28.969Z,36.3
2022-12-10T09:51:40.294Z,36.23
2022-12-10T09:58:30.188Z,36.55
2022-12-10T10:05:17.806Z,36.39
2022-12-10T10:11:58.330Z,36.45
2022-12-10T10:18:53.638Z,36.43
2022-12-10T10:25:30.960Z,36.37
2022-12-10T10:32:16.882Z,36.4
2022-12-10T10:39:00.574Z,36.51
2022-12-10T10:46:06.105Z,36.1
2022-12-10T10:53:00.894Z,36.21
2022-12-10T10:59:55.790Z,36.03
2022-12-10T11:06:35.048Z,35.74
2022-12-10T11:13:16.927Z,36.08
2022-12-10T11:20:00.879Z,36.42
2022-12-10T11:26:54.105Z,36.59
2022-12-10T11:33:55.976Z,36.62
2022-12-10T11:41:02.121Z,36.68
2022-12-10T11:48:01.905Z,36.45
2022-12-10T11:55:05.200Z,36.36
2022-12-10T12:02:17.402Z,36.19
2022-12-10T12:09:31.507Z,36.08
2022-12-10T12:16:28.870Z,35.96
2022-12-10T12:23:35.898Z,36.04
2022-12-10T12:30:42.898Z,36.4
2022-12-10T12:37:51.305Z,36.61
2022-12-10T12:45:07.125Z,36.75
2022-12-10T12:52:01.403Z,36.7
2022-12-10T12:59:22.027Z,36.66
2022-12-10T13:06:34.017Z,35.89
2022-12-10T13:13:39.535Z,35.89
2022-12-10T13:20:47.189Z,35.79
2022-12-10T13:27:42.878Z,35.67
2022-12-10T13:34:37.466Z,35.5
2022-12-10T13:41:40.450Z,35.55
2022-12-10T13:48:48.381Z,35.56
2022-12-10T13:55:52.318Z,35.44
2022-12-10T14:03:00.120Z,35.57
2022-12-10T14:09:57.744Z,35.59
2022-12-10T14:16:59.280Z,35.61
2022-12-10T14:24:01.972Z,35.79
2022-12-10T14:30:48.188Z,36.11
2022-12-10T14:37:51.982Z,35.96
2022-12-10T14:44:40.926Z,36.02
2022-12-10T14:51:20.517Z,36.19
2022-12-10T14:58:04.003Z,36.17
2022-12-10T15:05:01.442Z,36.34
2022-12-10T15:12:07.400Z,36.29
2022-12-10T15:18:56.420Z,36.2
2022-12-10T15:26:02.887Z,36.46
2022-12-10T15:32:57.566Z,36.44
2022-12-10T15:39:29.472Z,36.62
2022-12-10T15:46:31.048Z,36.54
2022-12-10T15:53:14.724Z,36.6
2022-12-10T15:59:51.556Z,36.61
2022-12-10T16:06:29.976Z,36.73
2022-12-10T16:13:01.048Z,36.73
2022-12-10T16:19:49.484Z,36.67
2022-12-10T16:26:12.984Z,36.76
2022-12-10T16:32:52.995Z,36.67
2022-12-10T16:39:12.902Z,36.75
2022-12-10T16:45:50.421Z,36.63
2022-12-10T16:52:26.964Z,36.74
2022-12-10T16:58:58.605Z,36.77
2022-12-10T17:05:33.017Z,36.85
2022-12-10T17:12:10.090Z,36.76
2022-12-10T17:18:55.180Z,36.81
2022-12-10T17:25:36.114Z,36.83
2022-12-10T17:32:27.632Z,36.71
2022-12-10T17:39:09.914Z,36.71
2022-12-10T17:45:40.255Z,36.61
2022-12-10T17:52:09.586Z,36.57
2022-12-10T17:58:35.534Z,36.51
2022-12-10T18:05:04.551Z,36.45
2022-12-10T18:11:39.120Z,36.47
2022-12-10T18:18:07.496Z,36.58
2022-12-10T18:24:34.118Z,36.55
2022-12-10T18:31:12.322Z,36.37
2022-12-10T18:37:48.049Z,36.48
2022-12-10T18:44:19.750Z,36.52
2022-12-10T18:50:57.522Z,36.56
2022-12-10T18:57:36.260Z,36.6
2022-12-10T19:04:09.525Z,36.51
2022-12-10T19:10:38.649Z,36.52
2022-12-10T19:17:03.209Z,36.47
2022-12-10T19:23:34.176Z,36.46
2022-12-10T19:30:08.091Z,36.42
2022-12-10T19:36:37.059Z,36.55
2022-12-10T19:43:14.810Z,36.51
2022-12-10T19:49:48.197Z,36.63
2022-12-10T19:56:24.042Z,36.53
2022-12-10T20:03:04.767Z,36.58
2022-12-10T20:09:38.659Z,36.55
2022-12-10T20:16:20.234Z,36.2
2022-12-10T20:22:55.791Z,36.12
2022-12-10T20:29:27.182Z,35.9
2022-12-10T20:35:59.292Z,35.41
2022-12-10T20:42:31.987Z,35.51
2022-12-10T20:49:05.170Z,35.57
2022-12-10T20:55:36.072Z,35.65
2022-12-10T21:02:14.462Z,35.62
2022-12-10T21:08:44.915Z,35.56
2022-12-10T21:15:23.428Z,35.92
2022-12-10T21:22:00.372Z,36.25
2022-12-10T21:28:33.865Z,36.4
2022-12-10T21:35:08.434Z,36.61
2022-12-10T21:41:42.597Z,36.47
2022-12-10T21:48:07.645Z,36.62
2022-12-10T21:54:54.604Z,36.62
2022-12-10T22:01:28.955Z,36.54
2022-12-10T22:07:56.983Z,36.53
2022-12-10T22:14:25.961Z,36.58
2022-12-10T22:20:51.764Z,36.72
2022-12-10T22:27:24.493Z,36.55
2022-12-10T22:33:47.603Z,36.73
2022-12-10T22:40:13.609Z,36.78
2022-12-10T22:46:35.438Z,36.81
2022-12-10T22:52:58.252Z,36.87
2022-12-10T22:59:21.301Z,36.77
2022-12-10T23:05:45.593Z,36.64
2022-12-10T23:12:08.118Z,36.61
2022-12-10T23:18:40.041Z,36.81
2022-12-10T23:25:15.204Z,36.69
2022-12-10T23:31:38.477Z,36.63
2022-12-10T23:38:19.058Z,36.67
2022-12-10T23:44:39.724Z,36.74
2022-12-10T23:51:09.155Z,36.72
2022-12-10T23:57:38.201Z,36.74
